sensor_id;sensor_type;location;lat;lon;timestamp;temperature;humidity
52899;DHT22;38763;53.096;6.062;2022-12-29T00:01:32;9.70;99.90
52899;DHT22;38763;53.096;6.062;2022-12-29T00:03:58;9.80;99.90
52899;DHT22;38763;53.096;6.062;2022-12-29T00:06:24;9.60;99.90
52899;DHT22;38763;53.096;6.062;2022-12-29T00:08:50;9.80;99.90
52899;DHT22;38763;53.096;6.062;2022-12-29T00:11:18;10.00;99.90
52899;DHT22;38763;53.096;6.062;2022-12-29T00:13:44;10.00;99.90
52899;DHT22;38763;53.096;6.062;2022-12-29T00:16:29;9.80;99.90
52899;DHT22;38763;53.096;6.062;2022-12-29T00:18:55;10.00;99.90
52899;DHT22;38763;53.096;6.062;2022-12-29T00:21:22;10.20;99.90
52899;DHT22;38763;53.096;6.062;2022-12-29T00:24:14;10.00;99.90
52899;DHT22;38763;53.096;6.062;2022-12-29T00:29:46;10.10;99.90
52899;DHT22;38763;53.096;6.062;2022-12-29T00:32:30;10.10;99.90
52899;DHT22;38763;53.096;6.062;2022-12-29T00:35:23;10.10;99.90
52899;DHT22;38763;53.096;6.062;2022-12-29T00:37:50;9.90;99.90
52899;DHT22;38763;53.096;6.062;2022-12-29T00:40:35;10.10;99.90
52899;DHT22;38763;53.096;6.062;2022-12-29T00:43:19;10.20;99.90
52899;DHT22;38763;53.096;6.062;2022-12-29T00:46:04;9.90;99.90
52899;DHT22;38763;53.096;6.062;2022-12-29T00:48:29;10.00;99.90
52899;DHT22;38763;53.096;6.062;2022-12-29T00:51:14;10.10;99.90
52899;DHT22;38763;53.096;6.062;2022-12-29T00:53:40;10.10;99.90
52899;DHT22;38763;53.096;6.062;2022-12-29T00:56:05;9.90;99.90
52899;DHT22;38763;53.096;6.062;2022-12-29T00:58:31;10.00;99.90
52899;DHT22;38763;53.096;6.062;2022-12-29T01:01:07;10.00;99.90
52899;DHT22;38763;53.096;6.062;2022-12-29T01:03:37;10.20;99.90
52899;DHT22;38763;53.096;6.062;2022-12-29T01:06:08;10.20;99.90
52899;DHT22;38763;53.096;6.062;2022-12-29T01:08:34;10.20;99.90
52899;DHT22;38763;53.096;6.062;2022-12-29T01:11:03;10.30;99.90
52899;DHT22;38763;53.096;6.062;2022-12-29T01:13:29;10.10;99.90
52899;DHT22;38763;53.096;6.062;2022-12-29T01:15:55;10.20;99.90
52899;DHT22;38763;53.096;6.062;2022-12-29T01:18:22;10.20;99.90
52899;DHT22;38763;53.096;6.062;2022-12-29T01:20:48;10.20;99.90
52899;DHT22;38763;53.096;6.062;2022-12-29T01:23:13;10.20;99.90
52899;DHT22;38763;53.096;6.062;2022-12-29T01:25:39;10.20;99.90
52899;DHT22;38763;53.096;6.062;2022-12-29T01:28:05;10.30;99.90
52899;DHT22;38763;53.096;6.062;2022-12-29T01:30:32;10.10;99.90
52899;DHT22;38763;53.096;6.062;2022-12-29T01:32:58;10.00;99.90
52899;DHT22;38763;53.096;6.062;2022-12-29T01:35:23;10.20;99.90
52899;DHT22;38763;53.096;6.062;2022-12-29T01:37:49;9.90;99.90
52899;DHT22;38763;53.096;6.062;2022-12-29T01:40:14;9.90;99.90
52899;DHT22;38763;53.096;6.062;2022-12-29T01:42:40;10.10;99.90
52899;DHT22;38763;53.096;6.062;2022-12-29T01:45:11;10.00;99.90
52899;DHT22;38763;53.096;6.062;2022-12-29T01:52:41;10.00;99.90
52899;DHT22;38763;53.096;6.062;2022-12-29T01:55:09;9.80;99.90
52899;DHT22;38763;53.096;6.062;2022-12-29T01:57:39;9.70;99.90
52899;DHT22;38763;53.096;6.062;2022-12-29T02:00:09;9.70;99.90
52899;DHT22;38763;53.096;6.062;2022-12-29T02:02:35;9.90;99.90
52899;DHT22;38763;53.096;6.062;2022-12-29T02:05:07;9.80;99.90
52899;DHT22;38763;53.096;6.062;2022-12-29T02:07:34;9.90;99.90
52899;DHT22;38763;53.096;6.062;2022-12-29T02:10:01;10.00;99.90
52899;DHT22;38763;53.096;6.062;2022-12-29T02:12:27;9.60;99.90
52899;DHT22;38763;53.096;6.062;2022-12-29T02:14:57;9.60;99.90
52899;DHT22;38763;53.096;6.062;2022-12-29T02:17:50;9.60;99.90
52899;DHT22;38763;53.096;6.062;2022-12-29T02:32:29;9.90;99.90
52899;DHT22;38763;53.096;6.062;2022-12-29T02:35:05;9.90;99.90
52899;DHT22;38763;53.096;6.062;2022-12-29T02:37:59;9.90;99.90
52899;DHT22;38763;53.096;6.062;2022-12-29T02:40:47;9.60;99.90
52899;DHT22;38763;53.096;6.062;2022-12-29T02:43:26;10.00;99.90
52899;DHT22;38763;53.096;6.062;2022-12-29T02:45:56;10.00;99.90
52899;DHT22;38763;53.096;6.062;2022-12-29T02:48:36;10.00;99.90
52899;DHT22;38763;53.096;6.062;2022-12-29T02:51:07;9.80;99.90
52899;DHT22;38763;53.096;6.062;2022-12-29T02:53:36;10.00;99.90
52899;DHT22;38763;53.096;6.062;2022-12-29T02:56:21;9.90;99.90
52899;DHT22;38763;53.096;6.062;2022-12-29T02:58:46;9.90;99.90
52899;DHT22;38763;53.096;6.062;2022-12-29T03:04:12;10.00;99.90
52899;DHT22;38763;53.096;6.062;2022-12-29T03:12:30;9.90;99.90
52899;DHT22;38763;53.096;6.062;2022-12-29T03:15:21;9.80;99.90
52899;DHT22;38763;53.096;6.062;2022-12-29T03:18:15;10.00;99.90
52899;DHT22;38763;53.096;6.062;2022-12-29T03:23:34;9.70;99.90
52899;DHT22;38763;53.096;6.062;2022-12-29T03:26:06;9.50;99.90
52899;DHT22;38763;53.096;6.062;2022-12-29T03:28:39;9.30;99.90
52899;DHT22;38763;53.096;6.062;2022-12-29T03:31:08;9.40;99.90
52899;DHT22;38763;53.096;6.062;2022-12-29T03:33:39;9.30;99.90
52899;DHT22;38763;53.096;6.062;2022-12-29T03:36:10;9.30;99.90
52899;DHT22;38763;53.096;6.062;2022-12-29T03:41:14;9.30;99.90
52899;DHT22;38763;53.096;6.062;2022-12-29T03:43:41;9.40;99.90
52899;DHT22;38763;53.096;6.062;2022-12-29T03:46:06;9.40;99.90
52899;DHT22;38763;53.096;6.062;2022-12-29T03:48:32;9.20;99.90
52899;DHT22;38763;53.096;6.062;2022-12-29T03:50:58;9.30;99.90
52899;DHT22;38763;53.096;6.062;2022-12-29T03:53:24;9.30;99.90
52899;DHT22;38763;53.096;6.062;2022-12-29T03:55:49;9.20;99.90
52899;DHT22;38763;53.096;6.062;2022-12-29T03:58:15;9.20;99.90
52899;DHT22;38763;53.096;6.062;2022-12-29T04:00:41;9.40;99.90
52899;DHT22;38763;53.096;6.062;2022-12-29T04:03:06;9.20;99.90
52899;DHT22;38763;53.096;6.062;2022-12-29T04:05:32;9.40;99.90
52899;DHT22;38763;53.096;6.062;2022-12-29T04:07:57;9.20;99.90
52899;DHT22;38763;53.096;6.062;2022-12-29T04:10:23;9.30;99.90
52899;DHT22;38763;53.096;6.062;2022-12-29T04:12:49;9.30;99.90
52899;DHT22;38763;53.096;6.062;2022-12-29T04:15:14;9.30;99.90
52899;DHT22;38763;53.096;6.062;2022-12-29T04:17:40;9.50;99.90
52899;DHT22;38763;53.096;6.062;2022-12-29T04:20:06;9.30;99.90
52899;DHT22;38763;53.096;6.062;2022-12-29T04:22:58;9.30;99.90
52899;DHT22;38763;53.096;6.062;2022-12-29T04:25:24;9.20;99.90
52899;DHT22;38763;53.096;6.062;2022-12-29T04:27:50;9.10;99.90
52899;DHT22;38763;53.096;6.062;2022-12-29T04:30:15;9.20;99.90
52899;DHT22;38763;53.096;6.062;2022-12-29T04:32:41;9.00;99.90
52899;DHT22;38763;53.096;6.062;2022-12-29T04:35:07;9.10;99.90
52899;DHT22;38763;53.096;6.062;2022-12-29T04:37:33;9.10;99.90
52899;DHT22;38763;53.096;6.062;2022-12-29T04:39:58;9.00;99.90
52899;DHT22;38763;53.096;6.062;2022-12-29T04:42:24;8.90;99.90
52899;DHT22;38763;53.096;6.062;2022-12-29T04:44:49;8.90;99.90
52899;DHT22;38763;53.096;6.062;2022-12-29T04:47:15;8.90;99.90
52899;DHT22;38763;53.096;6.062;2022-12-29T04:49:40;8.80;99.90
52899;DHT22;38763;53.096;6.062;2022-12-29T04:52:06;8.80;99.90
52899;DHT22;38763;53.096;6.062;2022-12-29T04:54:33;8.90;99.90
52899;DHT22;38763;53.096;6.062;2022-12-29T04:56:59;8.80;99.90
52899;DHT22;38763;53.096;6.062;2022-12-29T04:59:25;8.70;99.90
52899;DHT22;38763;53.096;6.062;2022-12-29T05:01:51;8.80;99.90
52899;DHT22;38763;53.096;6.062;2022-12-29T05:04:17;8.80;99.90
52899;DHT22;38763;53.096;6.062;2022-12-29T05:06:42;8.70;99.90
52899;DHT22;38763;53.096;6.062;2022-12-29T05:09:08;8.70;99.90
52899;DHT22;38763;53.096;6.062;2022-12-29T05:11:34;8.60;99.90
52899;DHT22;38763;53.096;6.062;2022-12-29T05:14:00;8.60;99.90
52899;DHT22;38763;53.096;6.062;2022-12-29T05:16:25;8.70;99.90
52899;DHT22;38763;53.096;6.062;2022-12-29T05:18:51;8.60;99.90
52899;DHT22;38763;53.096;6.062;2022-12-29T05:21:17;8.60;99.90
52899;DHT22;38763;53.096;6.062;2022-12-29T05:23:42;8.60;99.90
52899;DHT22;38763;53.096;6.062;2022-12-29T05:26:08;8.50;99.90
52899;DHT22;38763;53.096;6.062;2022-12-29T05:28:33;8.50;99.90
52899;DHT22;38763;53.096;6.062;2022-12-29T05:30:59;8.40;99.90
52899;DHT22;38763;53.096;6.062;2022-12-29T05:33:25;8.40;99.90
52899;DHT22;38763;53.096;6.062;2022-12-29T05:35:50;8.50;99.90
52899;DHT22;38763;53.096;6.062;2022-12-29T05:38:16;8.60;99.90
52899;DHT22;38763;53.096;6.062;2022-12-29T05:40:43;8.60;99.90
52899;DHT22;38763;53.096;6.062;2022-12-29T05:43:08;8.80;99.90
52899;DHT22;38763;53.096;6.062;2022-12-29T05:45:35;8.80;99.90
52899;DHT22;38763;53.096;6.062;2022-12-29T05:48:01;8.80;99.90
52899;DHT22;38763;53.096;6.062;2022-12-29T05:50:27;8.90;99.90
52899;DHT22;38763;53.096;6.062;2022-12-29T05:52:52;8.80;99.90
52899;DHT22;38763;53.096;6.062;2022-12-29T05:55:18;8.90;99.90
52899;DHT22;38763;53.096;6.062;2022-12-29T05:57:43;8.90;99.90
52899;DHT22;38763;53.096;6.062;2022-12-29T06:00:10;8.90;99.90
52899;DHT22;38763;53.096;6.062;2022-12-29T06:02:35;8.80;99.90
52899;DHT22;38763;53.096;6.062;2022-12-29T06:05:01;8.80;99.90
52899;DHT22;38763;53.096;6.062;2022-12-29T06:07:26;8.90;99.90
52899;DHT22;38763;53.096;6.062;2022-12-29T06:09:52;8.90;99.90
52899;DHT22;38763;53.096;6.062;2022-12-29T06:12:18;8.80;99.90
52899;DHT22;38763;53.096;6.062;2022-12-29T06:14:43;8.80;99.90
52899;DHT22;38763;53.096;6.062;2022-12-29T06:17:09;8.90;99.90
52899;DHT22;38763;53.096;6.062;2022-12-29T06:19:35;8.80;99.90
52899;DHT22;38763;53.096;6.062;2022-12-29T06:22:00;8.80;99.90
52899;DHT22;38763;53.096;6.062;2022-12-29T06:24:26;8.80;99.90
52899;DHT22;38763;53.096;6.062;2022-12-29T06:26:52;8.70;99.90
52899;DHT22;38763;53.096;6.062;2022-12-29T06:29:17;8.80;99.90
52899;DHT22;38763;53.096;6.062;2022-12-29T06:31:44;8.70;99.90
52899;DHT22;38763;53.096;6.062;2022-12-29T06:34:14;8.70;99.90
52899;DHT22;38763;53.096;6.062;2022-12-29T06:36:40;8.70;99.90
52899;DHT22;38763;53.096;6.062;2022-12-29T06:39:06;8.70;99.90
52899;DHT22;38763;53.096;6.062;2022-12-29T06:41:32;8.60;99.90
52899;DHT22;38763;53.096;6.062;2022-12-29T06:43:57;8.70;99.90
52899;DHT22;38763;53.096;6.062;2022-12-29T06:46:23;8.60;99.90
52899;DHT22;38763;53.096;6.062;2022-12-29T06:48:49;8.60;99.90
52899;DHT22;38763;53.096;6.062;2022-12-29T06:51:14;8.70;99.90
52899;DHT22;38763;53.096;6.062;2022-12-29T06:53:40;8.60;99.90
52899;DHT22;38763;53.096;6.062;2022-12-29T06:56:06;8.70;99.90
52899;DHT22;38763;53.096;6.062;2022-12-29T06:58:31;8.70;99.90
52899;DHT22;38763;53.096;6.062;2022-12-29T07:00:57;8.70;99.90
52899;DHT22;38763;53.096;6.062;2022-12-29T07:03:23;8.70;99.90
52899;DHT22;38763;53.096;6.062;2022-12-29T07:05:48;8.60;99.90
52899;DHT22;38763;53.096;6.062;2022-12-29T07:08:14;8.70;99.90
52899;DHT22;38763;53.096;6.062;2022-12-29T07:10:40;8.60;99.90
52899;DHT22;38763;53.096;6.062;2022-12-29T07:13:05;8.60;99.90
52899;DHT22;38763;53.096;6.062;2022-12-29T07:15:33;8.60;99.90
52899;DHT22;38763;53.096;6.062;2022-12-29T07:17:59;8.70;99.90
52899;DHT22;38763;53.096;6.062;2022-12-29T07:20:25;8.80;99.90
52899;DHT22;38763;53.096;6.062;2022-12-29T07:22:50;8.80;99.90
52899;DHT22;38763;53.096;6.062;2022-12-29T07:25:16;8.70;99.90
52899;DHT22;38763;53.096;6.062;2022-12-29T07:27:42;8.80;99.90
52899;DHT22;38763;53.096;6.062;2022-12-29T07:30:08;8.90;99.90
52899;DHT22;38763;53.096;6.062;2022-12-29T07:32:34;8.80;99.90
52899;DHT22;38763;53.096;6.062;2022-12-29T07:35:00;8.90;99.90
52899;DHT22;38763;53.096;6.062;2022-12-29T07:37:25;8.80;99.90
52899;DHT22;38763;53.096;6.062;2022-12-29T07:39:51;8.80;99.90
52899;DHT22;38763;53.096;6.062;2022-12-29T07:42:16;8.90;99.90
52899;DHT22;38763;53.096;6.062;2022-12-29T07:44:42;8.90;99.90
52899;DHT22;38763;53.096;6.062;2022-12-29T07:47:08;8.80;99.90
52899;DHT22;38763;53.096;6.062;2022-12-29T07:49:33;8.80;99.90
52899;DHT22;38763;53.096;6.062;2022-12-29T07:51:59;8.80;99.90
52899;DHT22;38763;53.096;6.062;2022-12-29T07:54:25;8.80;99.90
52899;DHT22;38763;53.096;6.062;2022-12-29T07:56:51;8.80;99.90
52899;DHT22;38763;53.096;6.062;2022-12-29T07:59:16;8.70;99.90
52899;DHT22;38763;53.096;6.062;2022-12-29T08:01:42;8.70;99.90
52899;DHT22;38763;53.096;6.062;2022-12-29T08:04:08;8.80;99.90
52899;DHT22;38763;53.096;6.062;2022-12-29T08:06:34;8.80;99.90
52899;DHT22;38763;53.096;6.062;2022-12-29T08:08:59;8.80;99.90
52899;DHT22;38763;53.096;6.062;2022-12-29T08:11:26;8.90;99.90
52899;DHT22;38763;53.096;6.062;2022-12-29T08:13:52;9.00;99.90
52899;DHT22;38763;53.096;6.062;2022-12-29T08:16:18;8.80;99.90
52899;DHT22;38763;53.096;6.062;2022-12-29T08:18:43;8.80;99.90
52899;DHT22;38763;53.096;6.062;2022-12-29T08:21:09;8.80;99.90
52899;DHT22;38763;53.096;6.062;2022-12-29T08:23:35;8.80;99.90
52899;DHT22;38763;53.096;6.062;2022-12-29T08:26:02;8.80;99.90
52899;DHT22;38763;53.096;6.062;2022-12-29T08:28:29;8.80;99.90
52899;DHT22;38763;53.096;6.062;2022-12-29T08:30:58;8.90;99.90
52899;DHT22;38763;53.096;6.062;2022-12-29T08:33:23;8.90;99.90
52899;DHT22;38763;53.096;6.062;2022-12-29T08:35:49;8.80;99.90
52899;DHT22;38763;53.096;6.062;2022-12-29T08:38:15;8.80;99.90
52899;DHT22;38763;53.096;6.062;2022-12-29T08:40:41;8.80;99.90
52899;DHT22;38763;53.096;6.062;2022-12-29T08:43:06;8.90;99.90
52899;DHT22;38763;53.096;6.062;2022-12-29T08:45:32;9.00;99.90
52899;DHT22;38763;53.096;6.062;2022-12-29T08:47:58;9.00;99.90
52899;DHT22;38763;53.096;6.062;2022-12-29T08:50:23;8.90;99.90
52899;DHT22;38763;53.096;6.062;2022-12-29T08:52:49;9.00;99.90
52899;DHT22;38763;53.096;6.062;2022-12-29T08:55:15;8.90;99.90
52899;DHT22;38763;53.096;6.062;2022-12-29T08:57:40;8.90;99.90
52899;DHT22;38763;53.096;6.062;2022-12-29T09:00:07;8.80;99.90
52899;DHT22;38763;53.096;6.062;2022-12-29T09:02:33;8.90;99.90
52899;DHT22;38763;53.096;6.062;2022-12-29T09:04:58;8.90;99.90
52899;DHT22;38763;53.096;6.062;2022-12-29T09:07:25;8.90;99.90
52899;DHT22;38763;53.096;6.062;2022-12-29T09:09:51;8.90;99.90
52899;DHT22;38763;53.096;6.062;2022-12-29T09:12:17;8.90;99.90
52899;DHT22;38763;53.096;6.062;2022-12-29T09:14:43;8.90;99.90
52899;DHT22;38763;53.096;6.062;2022-12-29T09:17:10;8.90;99.90
52899;DHT22;38763;53.096;6.062;2022-12-29T09:19:54;8.80;99.90
52899;DHT22;38763;53.096;6.062;2022-12-29T09:22:20;8.90;99.90
52899;DHT22;38763;53.096;6.062;2022-12-29T09:24:46;8.80;99.90
52899;DHT22;38763;53.096;6.062;2022-12-29T09:27:11;8.80;99.90
52899;DHT22;38763;53.096;6.062;2022-12-29T09:29:37;8.80;99.90
52899;DHT22;38763;53.096;6.062;2022-12-29T09:32:03;8.90;99.90
52899;DHT22;38763;53.096;6.062;2022-12-29T09:34:28;8.90;99.90
52899;DHT22;38763;53.096;6.062;2022-12-29T09:36:54;8.90;99.90
52899;DHT22;38763;53.096;6.062;2022-12-29T09:39:21;8.90;99.90
52899;DHT22;38763;53.096;6.062;2022-12-29T09:42:01;8.90;99.90
52899;DHT22;38763;53.096;6.062;2022-12-29T09:44:31;8.80;99.90
52899;DHT22;38763;53.096;6.062;2022-12-29T09:47:10;8.80;99.90
52899;DHT22;38763;53.096;6.062;2022-12-29T09:49:42;8.90;99.90
52899;DHT22;38763;53.096;6.062;2022-12-29T09:52:18;9.00;99.90
52899;DHT22;38763;53.096;6.062;2022-12-29T09:54:55;8.90;99.90
52899;DHT22;38763;53.096;6.062;2022-12-29T09:57:59;8.80;99.90
52899;DHT22;38763;53.096;6.062;2022-12-29T10:00:22;8.60;99.90
52899;DHT22;38763;53.096;6.062;2022-12-29T10:02:49;8.50;99.90
52899;DHT22;38763;53.096;6.062;2022-12-29T10:07:44;8.50;99.90
52899;DHT22;38763;53.096;6.062;2022-12-29T10:10:46;8.60;99.90
52899;DHT22;38763;53.096;6.062;2022-12-29T10:16:29;8.60;99.90
52899;DHT22;38763;53.096;6.062;2022-12-29T10:22:28;8.40;99.90
52899;DHT22;38763;53.096;6.062;2022-12-29T10:24:58;8.40;99.90
52899;DHT22;38763;53.096;6.062;2022-12-29T10:27:30;8.50;99.90
52899;DHT22;38763;53.096;6.062;2022-12-29T10:29:57;8.50;99.90
52899;DHT22;38763;53.096;6.062;2022-12-29T10:32:34;8.40;99.90
52899;DHT22;38763;53.096;6.062;2022-12-29T10:40:49;8.40;99.90
52899;DHT22;38763;53.096;6.062;2022-12-29T10:43:34;8.40;99.90
52899;DHT22;38763;53.096;6.062;2022-12-29T10:46:05;8.50;99.90
52899;DHT22;38763;53.096;6.062;2022-12-29T10:48:34;8.50;99.90
52899;DHT22;38763;53.096;6.062;2022-12-29T10:51:02;8.40;99.90
52899;DHT22;38763;53.096;6.062;2022-12-29T10:53:40;8.50;99.90
52899;DHT22;38763;53.096;6.062;2022-12-29T10:56:33;8.50;99.90
52899;DHT22;38763;53.096;6.062;2022-12-29T10:59:07;8.50;99.90
52899;DHT22;38763;53.096;6.062;2022-12-29T11:01:44;8.70;99.90
52899;DHT22;38763;53.096;6.062;2022-12-29T11:07:17;8.60;99.90
52899;DHT22;38763;53.096;6.062;2022-12-29T11:09:44;8.80;99.90
52899;DHT22;38763;53.096;6.062;2022-12-29T11:12:25;8.60;99.90
52899;DHT22;38763;53.096;6.062;2022-12-29T11:17:51;8.70;99.90
52899;DHT22;38763;53.096;6.062;2022-12-29T11:20:54;8.60;99.90
52899;DHT22;38763;53.096;6.062;2022-12-29T11:26:21;8.70;99.90
52899;DHT22;38763;53.096;6.062;2022-12-29T11:29:21;8.80;99.90
52899;DHT22;38763;53.096;6.062;2022-12-29T11:31:52;8.90;99.90
52899;DHT22;38763;53.096;6.062;2022-12-29T11:36:53;9.00;99.90
52899;DHT22;38763;53.096;6.062;2022-12-29T11:39:39;9.10;99.90
52899;DHT22;38763;53.096;6.062;2022-12-29T11:42:11;9.20;99.90
52899;DHT22;38763;53.096;6.062;2022-12-29T11:44:43;9.20;99.90
52899;DHT22;38763;53.096;6.062;2022-12-29T11:47:19;9.40;99.90
52899;DHT22;38763;53.096;6.062;2022-12-29T11:49:50;9.40;99.90
52899;DHT22;38763;53.096;6.062;2022-12-29T11:52:22;9.40;99.90
52899;DHT22;38763;53.096;6.062;2022-12-29T11:54:49;9.40;99.90
52899;DHT22;38763;53.096;6.062;2022-12-29T11:57:17;9.50;99.90
52899;DHT22;38763;53.096;6.062;2022-12-29T11:59:50;9.60;99.90
52899;DHT22;38763;53.096;6.062;2022-12-29T12:04:56;9.60;99.90
52899;DHT22;38763;53.096;6.062;2022-12-29T12:10:04;9.40;99.90
52899;DHT22;38763;53.096;6.062;2022-12-29T12:12:39;9.40;99.90
52899;DHT22;38763;53.096;6.062;2022-12-29T12:15:16;9.30;99.90
52899;DHT22;38763;53.096;6.062;2022-12-29T12:18:05;9.20;99.90
52899;DHT22;38763;53.096;6.062;2022-12-29T12:20:54;9.20;99.90
52899;DHT22;38763;53.096;6.062;2022-12-29T12:23:44;9.10;99.90
52899;DHT22;38763;53.096;6.062;2022-12-29T12:26:17;9.20;99.90
52899;DHT22;38763;53.096;6.062;2022-12-29T12:28:57;9.10;99.90
52899;DHT22;38763;53.096;6.062;2022-12-29T12:31:45;9.10;99.90
52899;DHT22;38763;53.096;6.062;2022-12-29T12:34:17;9.10;99.90
52899;DHT22;38763;53.096;6.062;2022-12-29T12:39:43;9.10;99.90
52899;DHT22;38763;53.096;6.062;2022-12-29T12:48:02;9.00;99.90
52899;DHT22;38763;53.096;6.062;2022-12-29T12:50:43;9.10;99.90
52899;DHT22;38763;53.096;6.062;2022-12-29T13:06:07;9.10;99.90
52899;DHT22;38763;53.096;6.062;2022-12-29T13:08:42;9.20;99.90
52899;DHT22;38763;53.096;6.062;2022-12-29T13:14:21;9.10;99.90
52899;DHT22;38763;53.096;6.062;2022-12-29T13:16:54;9.20;99.90
52899;DHT22;38763;53.096;6.062;2022-12-29T13:19:30;9.20;99.90
52899;DHT22;38763;53.096;6.062;2022-12-29T13:22:04;9.10;99.90
52899;DHT22;38763;53.096;6.062;2022-12-29T13:30:39;9.10;99.90
52899;DHT22;38763;53.096;6.062;2022-12-29T13:33:28;9.20;99.90
52899;DHT22;38763;53.096;6.062;2022-12-29T13:36:00;9.20;99.90
52899;DHT22;38763;53.096;6.062;2022-12-29T13:38:39;9.30;99.90
52899;DHT22;38763;53.096;6.062;2022-12-29T13:41:17;9.20;99.90
52899;DHT22;38763;53.096;6.062;2022-12-29T13:43:45;9.30;99.90
52899;DHT22;38763;53.096;6.062;2022-12-29T13:46:18;9.30;99.90
52899;DHT22;38763;53.096;6.062;2022-12-29T13:49:03;9.40;99.90
52899;DHT22;38763;53.096;6.062;2022-12-29T13:51:31;9.20;99.90
52899;DHT22;38763;53.096;6.062;2022-12-29T14:01:54;9.00;99.90
52899;DHT22;38763;53.096;6.062;2022-12-29T14:04:24;8.90;99.90
52899;DHT22;38763;53.096;6.062;2022-12-29T14:07:05;8.80;99.90
52899;DHT22;38763;53.096;6.062;2022-12-29T14:11:59;8.70;99.90
52899;DHT22;38763;53.096;6.062;2022-12-29T14:14:28;8.80;99.90
52899;DHT22;38763;53.096;6.062;2022-12-29T14:17:09;8.80;99.90
52899;DHT22;38763;53.096;6.062;2022-12-29T14:19:41;8.80;99.90
52899;DHT22;38763;53.096;6.062;2022-12-29T14:22:10;8.80;99.90
52899;DHT22;38763;53.096;6.062;2022-12-29T14:24:44;8.70;99.90
52899;DHT22;38763;53.096;6.062;2022-12-29T14:34:52;8.40;99.90
52899;DHT22;38763;53.096;6.062;2022-12-29T14:37:35;8.40;99.90
52899;DHT22;38763;53.096;6.062;2022-12-29T14:40:05;8.30;99.90
52899;DHT22;38763;53.096;6.062;2022-12-29T14:42:32;8.30;99.90
52899;DHT22;38763;53.096;6.062;2022-12-29T14:45:23;8.30;99.90
52899;DHT22;38763;53.096;6.062;2022-12-29T14:47:52;8.30;99.90
52899;DHT22;38763;53.096;6.062;2022-12-29T14:55:37;8.20;99.90
52899;DHT22;38763;53.096;6.062;2022-12-29T14:58:52;8.20;99.90
52899;DHT22;38763;53.096;6.062;2022-12-29T15:00:52;8.30;99.90
52899;DHT22;38763;53.096;6.062;2022-12-29T15:03:29;8.20;99.90
52899;DHT22;38763;53.096;6.062;2022-12-29T15:08:33;8.20;99.90
52899;DHT22;38763;53.096;6.062;2022-12-29T15:11:09;8.20;99.90
52899;DHT22;38763;53.096;6.062;2022-12-29T15:13:39;8.20;99.90
52899;DHT22;38763;53.096;6.062;2022-12-29T15:16:20;8.20;99.90
52899;DHT22;38763;53.096;6.062;2022-12-29T15:18:46;8.20;99.90
52899;DHT22;38763;53.096;6.062;2022-12-29T15:21:13;8.00;99.90
52899;DHT22;38763;53.096;6.062;2022-12-29T15:23:43;8.00;99.90
52899;DHT22;38763;53.096;6.062;2022-12-29T15:26:10;8.00;99.90
52899;DHT22;38763;53.096;6.062;2022-12-29T15:28:45;8.00;99.90
52899;DHT22;38763;53.096;6.062;2022-12-29T15:31:17;8.00;99.90
52899;DHT22;38763;53.096;6.062;2022-12-29T15:33:49;7.90;99.90
52899;DHT22;38763;53.096;6.062;2022-12-29T15:36:26;8.00;99.90
52899;DHT22;38763;53.096;6.062;2022-12-29T15:38:53;8.00;99.90
52899;DHT22;38763;53.096;6.062;2022-12-29T15:41:26;8.00;99.90
52899;DHT22;38763;53.096;6.062;2022-12-29T15:46:23;8.00;99.90
52899;DHT22;38763;53.096;6.062;2022-12-29T15:48:49;8.00;99.90
52899;DHT22;38763;53.096;6.062;2022-12-29T15:51:30;8.00;99.90
52899;DHT22;38763;53.096;6.062;2022-12-29T15:53:57;8.00;99.90
52899;DHT22;38763;53.096;6.062;2022-12-29T15:56:23;8.20;99.90
52899;DHT22;38763;53.096;6.062;2022-12-29T15:58:50;8.00;99.90
52899;DHT22;38763;53.096;6.062;2022-12-29T16:01:37;8.00;99.90
52899;DHT22;38763;53.096;6.062;2022-12-29T16:04:07;8.00;99.90
52899;DHT22;38763;53.096;6.062;2022-12-29T16:06:38;7.80;99.90
52899;DHT22;38763;53.096;6.062;2022-12-29T16:09:05;7.70;99.90
52899;DHT22;38763;53.096;6.062;2022-12-29T16:11:37;7.70;99.90
52899;DHT22;38763;53.096;6.062;2022-12-29T16:14:09;7.50;99.90
52899;DHT22;38763;53.096;6.062;2022-12-29T16:16:41;7.60;99.90
52899;DHT22;38763;53.096;6.062;2022-12-29T16:19:36;7.40;99.90
52899;DHT22;38763;53.096;6.062;2022-12-29T16:22:04;7.40;99.90
52899;DHT22;38763;53.096;6.062;2022-12-29T16:24:37;7.30;99.90
52899;DHT22;38763;53.096;6.062;2022-12-29T16:27:16;7.30;99.90
52899;DHT22;38763;53.096;6.062;2022-12-29T16:29:43;7.30;99.90
52899;DHT22;38763;53.096;6.062;2022-12-29T16:32:29;7.30;99.90
52899;DHT22;38763;53.096;6.062;2022-12-29T16:35:16;7.30;99.90
52899;DHT22;38763;53.096;6.062;2022-12-29T16:37:43;7.30;99.90
52899;DHT22;38763;53.096;6.062;2022-12-29T16:42:46;7.20;99.90
52899;DHT22;38763;53.096;6.062;2022-12-29T16:48:32;7.10;99.90
52899;DHT22;38763;53.096;6.062;2022-12-29T16:50:35;7.10;99.90
52899;DHT22;38763;53.096;6.062;2022-12-29T16:53:02;7.20;99.90
52899;DHT22;38763;53.096;6.062;2022-12-29T16:55:29;7.10;99.90
52899;DHT22;38763;53.096;6.062;2022-12-29T16:57:55;7.10;99.90
52899;DHT22;38763;53.096;6.062;2022-12-29T17:00:33;7.20;99.90
52899;DHT22;38763;53.096;6.062;2022-12-29T17:03:01;7.20;99.90
52899;DHT22;38763;53.096;6.062;2022-12-29T17:05:27;7.30;99.90
52899;DHT22;38763;53.096;6.062;2022-12-29T17:07:52;7.20;99.90
52899;DHT22;38763;53.096;6.062;2022-12-29T17:10:18;7.20;99.90
52899;DHT22;38763;53.096;6.062;2022-12-29T17:12:47;7.20;99.90
52899;DHT22;38763;53.096;6.062;2022-12-29T17:15:24;7.30;99.90
52899;DHT22;38763;53.096;6.062;2022-12-29T17:17:53;7.40;99.90
52899;DHT22;38763;53.096;6.062;2022-12-29T17:22:48;7.30;99.90
52899;DHT22;38763;53.096;6.062;2022-12-29T17:25:17;7.40;99.90
52899;DHT22;38763;53.096;6.062;2022-12-29T17:27:47;7.40;99.90
52899;DHT22;38763;53.096;6.062;2022-12-29T17:30:16;7.40;99.90
52899;DHT22;38763;53.096;6.062;2022-12-29T17:33:18;7.40;99.90
52899;DHT22;38763;53.096;6.062;2022-12-29T17:35:36;7.40;99.90
52899;DHT22;38763;53.096;6.062;2022-12-29T17:38:02;7.40;99.90
52899;DHT22;38763;53.096;6.062;2022-12-29T17:40:29;7.40;99.90
52899;DHT22;38763;53.096;6.062;2022-12-29T17:42:57;7.40;99.90
52899;DHT22;38763;53.096;6.062;2022-12-29T17:45:29;7.30;99.90
52899;DHT22;38763;53.096;6.062;2022-12-29T17:47:56;7.40;99.90
52899;DHT22;38763;53.096;6.062;2022-12-29T17:50:25;7.30;99.90
52899;DHT22;38763;53.096;6.062;2022-12-29T17:52:54;7.30;99.90
52899;DHT22;38763;53.096;6.062;2022-12-29T17:55:21;7.30;99.90
52899;DHT22;38763;53.096;6.062;2022-12-29T17:57:48;7.30;99.90
52899;DHT22;38763;53.096;6.062;2022-12-29T18:00:15;7.20;99.90
52899;DHT22;38763;53.096;6.062;2022-12-29T18:02:42;7.20;99.90
52899;DHT22;38763;53.096;6.062;2022-12-29T18:05:20;7.10;99.90
52899;DHT22;38763;53.096;6.062;2022-12-29T18:07:47;7.20;99.90
52899;DHT22;38763;53.096;6.062;2022-12-29T18:10:14;7.20;99.90
52899;DHT22;38763;53.096;6.062;2022-12-29T18:12:42;7.30;99.90
52899;DHT22;38763;53.096;6.062;2022-12-29T18:15:28;7.20;99.90
52899;DHT22;38763;53.096;6.062;2022-12-29T18:18:09;7.20;99.90